createdAt,value
2022-09-02T00:01:33.050Z,98201.47
2022-09-02T00:03:37.556Z,98205.06
2022-09-02T00:05:41.156Z,98201.47
2022-09-02T00:07:44.165Z,98195.22
2022-09-02T00:09:47.135Z,98191.59
2022-09-02T00:11:51.252Z,98192.03
2022-09-02T00:13:54.531Z,98192.03
2022-09-02T00:15:57.605Z,98195.53
2022-09-02T00:18:00.941Z,98193.69
2022-09-02T00:20:06.061Z,98191.22
2022-09-02T00:22:09.420Z,98186.91
2022-09-02T00:24:12.543Z,98188.44
2022-09-02T00:26:15.944Z,98182.31
2022-09-02T00:28:19.160Z,98180.13
2022-09-02T00:30:23.770Z,98182.34
2022-09-02T00:32:26.778Z,98174.72
2022-09-02T00:34:29.930Z,98179.31
2022-09-02T00:36:34.929Z,98181.00
2022-09-02T00:38:39.647Z,98180.75
2022-09-02T00:40:49.219Z,98179.81
2022-09-02T00:42:52.708Z,98177.75
2022-09-02T00:44:56.064Z,98179.69
2022-09-02T00:46:59.013Z,98170.94
2022-09-02T00:49:05.647Z,98169.16
2022-09-02T00:51:08.927Z,98174.56
2022-09-02T00:53:15.369Z,98171.09
2022-09-02T00:55:20.721Z,98162.50
2022-09-02T00:57:26.465Z,98156.84
2022-09-02T00:59:40.884Z,98157.78
2022-09-02T01:01:44.597Z,98165.56
2022-09-02T01:03:48.769Z,98160.53
2022-09-02T01:05:53.425Z,98172.19
2022-09-02T01:07:57.939Z,98167.91
2022-09-02T01:10:03.311Z,98170.56
2022-09-02T01:12:07.092Z,98165.28
2022-09-02T01:14:12.490Z,98166.38
2022-09-02T01:16:20.197Z,98179.13
2022-09-02T01:18:29.285Z,98170.97
2022-09-02T01:20:32.465Z,98170.00
2022-09-02T01:22:36.812Z,98173.63
2022-09-02T01:24:39.817Z,98176.09
2022-09-02T01:26:42.813Z,98170.00
2022-09-02T01:28:45.822Z,98165.41
2022-09-02T01:30:51.525Z,98175.16
2022-09-02T01:32:55.178Z,98163.06
2022-09-02T01:34:59.290Z,98179.81
2022-09-02T01:37:03.537Z,98159.72
2022-09-02T01:39:08.127Z,98167.63
2022-09-02T01:41:11.216Z,98171.09
2022-09-02T01:43:17.388Z,98167.91
2022-09-02T01:45:23.711Z,98151.56
2022-09-02T01:47:27.899Z,98157.66
2022-09-02T01:49:33.377Z,98167.81
2022-09-02T01:51:39.407Z,98162.81
2022-09-02T01:53:45.495Z,98161.44
2022-09-02T01:55:49.916Z,98158.97
2022-09-02T01:57:52.932Z,98154.13
2022-09-02T01:59:56.399Z,98159.25
2022-09-02T02:02:00.302Z,98155.69
2022-09-02T02:04:04.173Z,98154.03
2022-09-02T02:06:12.133Z,98158.31
2022-09-02T02:08:16.219Z,98154.00
2022-09-02T02:10:22.402Z,98160.97
2022-09-02T02:12:27.286Z,98158.13
2022-09-02T02:14:31.685Z,98157.16
2022-09-02T02:16:34.707Z,98157.56
2022-09-02T02:18:37.807Z,98156.16
2022-09-02T02:20:44.947Z,98153.94
2022-09-02T02:22:48.749Z,98150.91
2022-09-02T02:24:52.523Z,98153.66
2022-09-02T02:26:55.551Z,98152.13
2022-09-02T02:29:00.367Z,98151.44
2022-09-02T02:31:04.357Z,98152.53
2022-09-02T02:33:07.595Z,98156.97
2022-09-02T02:35:11.548Z,98152.78
2022-09-02T02:37:15.256Z,98149.63
2022-09-02T02:39:18.316Z,98159.31
2022-09-02T02:41:22.676Z,98152.50
2022-09-02T02:43:26.000Z,98154.19
2022-09-02T02:45:30.465Z,98162.22
2022-09-02T02:47:33.451Z,98150.16
2022-09-02T02:49:38.299Z,98159.84
2022-09-02T02:51:41.283Z,98151.25
2022-09-02T02:53:44.281Z,98140.84
2022-09-02T02:55:49.802Z,98141.00
2022-09-02T02:57:53.593Z,98133.09
2022-09-02T02:59:58.035Z,98143.47
2022-09-02T03:02:02.513Z,98150.56
2022-09-02T03:04:06.613Z,98144.34
2022-09-02T03:06:10.008Z,98148.47
2022-09-02T03:08:13.213Z,98144.75
2022-09-02T03:10:16.299Z,98145.19
2022-09-02T03:12:20.958Z,98141.19
2022-09-02T03:14:24.670Z,98140.66
2022-09-02T03:16:28.360Z,98143.97
2022-09-02T03:18:32.838Z,98143.41
2022-09-02T03:20:36.116Z,98143.16
2022-09-02T03:22:41.838Z,98147.19
2022-09-02T03:24:44.842Z,98148.00
2022-09-02T03:26:48.730Z,98152.84
2022-09-02T03:28:55.163Z,98157.03
2022-09-02T03:30:58.154Z,98153.97
2022-09-02T03:33:04.575Z,98155.63
2022-09-02T03:35:13.673Z,98156.47
2022-09-02T03:37:17.516Z,98153.00
2022-09-02T03:39:21.197Z,98152.84
2022-09-02T03:41:25.186Z,98149.94
2022-09-02T03:43:30.307Z,98151.91
2022-09-02T03:45:33.963Z,98158.97
2022-09-02T03:47:47.226Z,98150.81
2022-09-02T03:49:50.731Z,98155.94
2022-09-02T03:51:55.418Z,98144.41
2022-09-02T03:53:59.264Z,98149.41
2022-09-02T03:56:06.306Z,98147.19
2022-09-02T03:58:09.347Z,98139.28
2022-09-02T04:00:17.237Z,98143.56
2022-09-02T04:02:22.591Z,98139.00
2022-09-02T04:04:25.815Z,98143.56
2022-09-02T04:06:32.694Z,98145.22
2022-09-02T04:08:38.618Z,98147.88
2022-09-02T04:10:41.705Z,98144.28
2022-09-02T04:12:44.736Z,98145.50
2022-09-02T04:14:47.725Z,98141.50
2022-09-02T04:17:49.969Z,98138.44
2022-09-02T04:20:48.299Z,98139.78
2022-09-02T04:23:10.691Z,98132.00
2022-09-02T04:25:16.802Z,98130.91
2022-09-02T04:27:21.934Z,98136.69
2022-09-02T04:29:26.325Z,98141.63
2022-09-02T04:31:31.966Z,98129.75
2022-09-02T04:33:36.730Z,98132.63
2022-09-02T04:35:41.781Z,98136.34
2022-09-02T04:37:47.234Z,98129.69
2022-09-02T04:39:52.625Z,98134.81
2022-09-02T04:41:57.260Z,98128.88
2022-09-02T04:44:02.031Z,98134.13
2022-09-02T04:46:10.015Z,98142.41
2022-09-02T04:48:13.234Z,98136.47
2022-09-02T04:50:17.371Z,98135.72
2022-09-02T04:52:34.098Z,98137.53
2022-09-02T04:54:37.354Z,98137.94
2022-09-02T04:56:41.720Z,98143.28
2022-09-02T04:58:46.492Z,98134.72
2022-09-02T05:00:49.943Z,98147.84
2022-09-02T05:02:55.736Z,98145.00
2022-09-02T05:05:00.321Z,98141.84
2022-09-02T05:07:06.587Z,98143.22
2022-09-02T05:09:15.500Z,98143.53
2022-09-02T05:11:28.533Z,98144.41
2022-09-02T05:13:32.640Z,98146.94
2022-09-02T05:15:41.965Z,98142.94
2022-09-02T05:17:46.877Z,98148.38
2022-09-02T05:19:50.171Z,98148.13
2022-09-02T05:21:55.230Z,98148.97
2022-09-02T05:24:04.152Z,98156.16
2022-09-02T05:26:08.779Z,98152.31
2022-09-02T05:28:12.552Z,98160.09
2022-09-02T05:30:15.961Z,98154.28
2022-09-02T05:32:20.494Z,98161.22
2022-09-02T05:34:25.507Z,98160.53
2022-09-02T05:36:32.588Z,98167.59
2022-09-02T05:38:36.090Z,98155.41
2022-09-02T05:40:39.860Z,98167.59
2022-09-02T05:42:45.435Z,98163.66
2022-09-02T05:44:51.948Z,98166.03
2022-09-02T05:46:57.461Z,98162.81
2022-09-02T05:49:07.611Z,98161.41
2022-09-02T05:51:20.753Z,98160.16
2022-09-02T05:53:26.862Z,98157.78
2022-09-02T05:55:30.204Z,98158.84
2022-09-02T05:57:33.392Z,98166.53
2022-09-02T05:59:43.245Z,98163.13
2022-09-02T06:01:50.600Z,98162.63
2022-09-02T06:03:53.886Z,98168.22
2022-09-02T06:06:04.419Z,98164.22
2022-09-02T06:08:10.797Z,98175.41
2022-09-02T06:10:14.656Z,98174.78
2022-09-02T06:12:20.120Z,98172.28
2022-09-02T06:14:25.507Z,98170.72
2022-09-02T06:16:29.535Z,98173.19
2022-09-02T06:18:33.212Z,98167.50
2022-09-02T06:20:40.912Z,98172.88
2022-09-02T06:22:45.369Z,98175.38
2022-09-02T06:24:48.873Z,98174.41
2022-09-02T06:26:59.478Z,98178.28
2022-09-02T06:29:02.654Z,98185.28
2022-09-02T06:31:10.115Z,98174.06
2022-09-02T06:33:14.041Z,98182.00
2022-09-02T06:35:18.846Z,98183.31
2022-09-02T06:37:22.057Z,98178.34
2022-09-02T06:39:28.856Z,98174.16
2022-09-02T06:41:34.829Z,98177.59
2022-09-02T06:43:42.992Z,98178.47
2022-09-02T06:45:56.265Z,98174.50
2022-09-02T06:47:59.340Z,98177.94
2022-09-02T06:50:03.279Z,98171.88
2022-09-02T06:52:06.748Z,98170.28
2022-09-02T06:54:15.235Z,98172.34
2022-09-02T06:56:21.350Z,98173.50
2022-09-02T06:58:24.423Z,98176.84
2022-09-02T07:00:27.997Z,98173.19
2022-09-02T07:02:31.043Z,98182.84
2022-09-02T07:04:53.220Z,98174.22
2022-09-02T07:06:59.354Z,98180.16
2022-09-02T07:09:06.382Z,98176.59
2022-09-02T07:11:18.117Z,98171.97
2022-09-02T07:13:22.623Z,98169.66
2022-09-02T07:15:25.844Z,98168.34
2022-09-02T07:17:29.055Z,98167.63
2022-09-02T07:19:37.663Z,98167.53
2022-09-02T07:21:42.105Z,98164.69
2022-09-02T07:23:45.545Z,98170.59
2022-09-02T07:25:48.859Z,98167.50
2022-09-02T07:27:52.355Z,98166.00
2022-09-02T07:29:57.630Z,98154.66
2022-09-02T07:32:00.677Z,98160.50
2022-09-02T07:34:05.935Z,98159.00
2022-09-02T07:36:12.566Z,98159.00
2022-09-02T07:38:17.407Z,98156.41
2022-09-02T07:40:20.826Z,98159.41
2022-09-02T07:42:24.650Z,98149.16
2022-09-02T07:44:27.965Z,98155.22
2022-09-02T07:46:32.771Z,98159.22
2022-09-02T07:48:37.256Z,98158.16
2022-09-02T07:50:41.015Z,98158.47
2022-09-02T07:52:49.006Z,98153.63
2022-09-02T07:54:53.173Z,98141.78
2022-09-02T07:56:56.761Z,98147.59
2022-09-02T07:59:00.287Z,98145.94
2022-09-02T08:01:03.424Z,98133.16
2022-09-02T08:05:22.177Z,98130.13
2022-09-02T08:07:25.152Z,98132.59
2022-09-02T08:09:28.587Z,98134.75
2022-09-02T08:11:32.517Z,98127.31
2022-09-02T08:13:36.472Z,98136.34
2022-09-02T08:15:39.969Z,98134.75
2022-09-02T08:17:44.247Z,98140.69
2022-09-02T08:19:48.647Z,98129.75
2022-09-02T08:21:51.749Z,98122.69
2022-09-02T08:23:54.807Z,98140.56
2022-09-02T08:26:00.603Z,98130.16
2022-09-02T08:28:04.208Z,98140.47
2022-09-02T08:30:09.917Z,98131.34
2022-09-02T08:32:13.592Z,98134.69
2022-09-02T08:34:16.996Z,98121.56
2022-09-02T08:36:21.358Z,98122.22
2022-09-02T08:38:24.501Z,98128.41
2022-09-02T08:40:34.328Z,98129.63
2022-09-02T08:42:39.605Z,98122.56
2022-09-02T08:44:42.808Z,98120.44
2022-09-02T08:46:45.908Z,98116.28
2022-09-02T08:48:53.177Z,98119.94
2022-09-02T08:51:00.503Z,98127.94
2022-09-02T08:53:10.451Z,98125.91
2022-09-02T08:55:20.982Z,98115.53
2022-09-02T08:57:27.014Z,98124.00
2022-09-02T08:59:31.676Z,98119.50
2022-09-02T09:01:44.320Z,98126.84
2022-09-02T09:04:08.792Z,98124.00
2022-09-02T09:06:17.451Z,98124.66
2022-09-02T09:08:29.103Z,98121.97
2022-09-02T09:10:38.334Z,98110.88
2022-09-02T09:13:12.187Z,98109.41
2022-09-02T09:15:22.060Z,98115.19
2022-09-02T09:17:29.476Z,98114.09
2022-09-02T09:19:40.510Z,98100.44
2022-09-02T09:21:45.021Z,98110.38
2022-09-02T09:23:50.332Z,98100.13
2022-09-02T09:25:56.835Z,98095.66
2022-09-02T09:28:01.852Z,98094.44
2022-09-02T09:30:11.518Z,98096.19
2022-09-02T09:32:25.238Z,98080.97
2022-09-02T09:35:02.872Z,98078.69
2022-09-02T09:37:06.451Z,98082.03
2022-09-02T09:39:20.752Z,98079.19
2022-09-02T09:41:25.087Z,98067.91
2022-09-02T09:43:31.248Z,98081.97
2022-09-02T09:45:35.728Z,98070.91
2022-09-02T09:47:38.850Z,98068.41
2022-09-02T09:49:41.988Z,98075.94
2022-09-02T09:51:55.377Z,98071.38
2022-09-02T09:54:16.694Z,98073.66
2022-09-02T09:56:32.187Z,98059.69
2022-09-02T09:58:45.855Z,98051.97
2022-09-02T10:00:49.163Z,98055.50
2022-09-02T10:02:53.531Z,98049.22
2022-09-02T10:05:11.587Z,98055.84
2022-09-02T10:07:15.340Z,98056.19
2022-09-02T10:09:33.803Z,98048.84
2022-09-02T10:11:38.821Z,98063.50
2022-09-02T10:13:41.988Z,98065.13
2022-09-02T10:15:51.125Z,98059.78
2022-09-02T10:17:58.324Z,98053.47
2022-09-02T10:20:05.150Z,98050.97
2022-09-02T10:22:37.814Z,98041.47
2022-09-02T10:25:04.055Z,98041.34
2022-09-02T10:27:09.760Z,98040.66
2022-09-02T10:29:40.924Z,98031.34
2022-09-02T10:31:50.719Z,98027.78
2022-09-02T10:34:03.921Z,98034.38
2022-09-02T10:36:17.140Z,98030.13
2022-09-02T10:38:35.276Z,98037.25
2022-09-02T10:40:44.168Z,98033.00
2022-09-02T10:42:55.554Z,98029.06
2022-09-02T10:45:07.111Z,98027.84
2022-09-02T10:47:16.895Z,98015.97
2022-09-02T10:49:26.842Z,98027.94
2022-09-02T10:51:37.332Z,98030.41
2022-09-02T10:53:47.936Z,98013.16
2022-09-02T10:55:57.147Z,98015.91
2022-09-02T10:58:06.329Z,98014.91
2022-09-02T11:00:14.681Z,98003.84
2022-09-02T11:02:21.835Z,98014.34
2022-09-02T11:04:33.133Z,98011.78
2022-09-02T11:07:01.324Z,97999.63
2022-09-02T11:09:09.262Z,97997.72
2022-09-02T11:11:14.808Z,97998.72
2022-09-02T11:13:24.531Z,97989.88
2022-09-02T11:15:39.529Z,97995.06
2022-09-02T11:17:48.556Z,97983.94
2022-09-02T11:19:56.353Z,97992.78
2022-09-02T11:22:02.751Z,97984.75
2022-09-02T11:24:10.324Z,97988.22
2022-09-02T11:26:17.416Z,97981.88
2022-09-02T11:28:30.347Z,97989.28
2022-09-02T11:30:39.751Z,97966.66
2022-09-02T11:32:45.525Z,97970.41
2022-09-02T11:34:50.546Z,97971.41
2022-09-02T11:36:54.103Z,97964.19
2022-09-02T11:39:00.544Z,97972.03
2022-09-02T11:41:38.068Z,97976.34
2022-09-02T11:43:47.564Z,97966.09
2022-09-02T11:46:13.532Z,97960.34
2022-09-02T11:48:46.233Z,97958.91
2022-09-02T11:51:02.107Z,97965.66
2022-09-02T11:53:17.360Z,97964.19
2022-09-02T11:55:23.677Z,97960.28
2022-09-02T11:57:26.982Z,97964.84
2022-09-02T12:00:03.678Z,97961.13
2022-09-02T12:02:34.503Z,97961.50
2022-09-02T12:04:59.379Z,97954.53
2022-09-02T12:07:26.415Z,97957.22
2022-09-02T12:11:54.984Z,97950.44
2022-09-02T12:13:59.994Z,97955.59
2022-09-02T12:16:36.419Z,97958.47
2022-09-02T12:18:43.663Z,97957.63
2022-09-02T12:21:08.684Z,97948.75
2022-09-02T12:23:53.615Z,97945.28
2022-09-02T12:25:58.846Z,97954.16
2022-09-02T12:28:21.718Z,97952.28
2022-09-02T12:30:59.324Z,97936.88
2022-09-02T12:33:13.470Z,97939.34
2022-09-02T12:35:46.894Z,97946.09
2022-09-02T12:37:55.107Z,97938.91
2022-09-02T12:39:59.835Z,97914.41
2022-09-02T12:42:05.160Z,97936.59
2022-09-02T12:44:25.353Z,97944.97
2022-09-02T12:46:33.641Z,97930.16
2022-09-02T12:48:42.228Z,97923.22
2022-09-02T12:50:56.020Z,97923.84
2022-09-02T12:53:23.291Z,97934.38
2022-09-02T12:55:27.604Z,97935.00
2022-09-02T12:57:40.686Z,97924.31
2022-09-02T12:59:44.753Z,97919.75
2022-09-02T13:04:14.432Z,97912.75
2022-09-02T13:06:28.345Z,97908.06
2022-09-02T13:09:07.713Z,97913.63
2022-09-02T13:11:50.354Z,97906.63
2022-09-02T13:14:08.105Z,97907.66
2022-09-02T13:16:19.069Z,97909.69
2022-09-02T13:18:59.611Z,97904.75
2022-09-02T13:21:42.250Z,97903.13
2022-09-02T13:24:13.478Z,97896.78
2022-09-02T13:26:48.221Z,97896.38
2022-09-02T13:29:33.231Z,97899.25
2022-09-02T13:31:36.293Z,97891.25
2022-09-02T13:33:42.419Z,97885.69
2022-09-02T13:35:45.782Z,97876.03
2022-09-02T13:38:00.245Z,97879.50
2022-09-02T13:40:07.921Z,97882.81
2022-09-02T13:42:25.610Z,97877.47
2022-09-02T13:44:30.133Z,97875.81
2022-09-02T13:46:33.252Z,97868.22
2022-09-02T13:48:41.025Z,97878.69
2022-09-02T13:50:45.259Z,97864.94
2022-09-02T13:55:16.094Z,97867.22
2022-09-02T13:57:22.664Z,97873.63
2022-09-02T13:59:33.361Z,97869.09
2022-09-02T14:01:39.883Z,97861.28
2022-09-02T14:03:48.666Z,97870.50
2022-09-02T14:05:53.620Z,97857.53
2022-09-02T14:07:58.511Z,97854.06
2022-09-02T14:10:03.136Z,97841.31
2022-09-02T14:12:10.212Z,97851.19
2022-09-02T14:14:15.220Z,97844.19
2022-09-02T14:16:29.051Z,97836.81
2022-09-02T14:18:32.745Z,97834.16
2022-09-02T14:20:36.408Z,97845.22
2022-09-02T14:22:40.138Z,97828.97
2022-09-02T14:24:43.169Z,97831.03
2022-09-02T14:26:47.740Z,97819.53
2022-09-02T14:28:53.356Z,97811.31
2022-09-02T14:30:59.575Z,97818.28
2022-09-02T14:33:29.677Z,97806.78
2022-09-02T14:35:32.774Z,97801.44
2022-09-02T14:37:36.023Z,97804.53
2022-09-02T14:39:52.787Z,97798.38
2022-09-02T14:41:57.871Z,97796.09
2022-09-02T14:44:11.212Z,97797.56
2022-09-02T14:46:27.225Z,97792.00
2022-09-02T14:48:30.352Z,97785.41
2022-09-02T14:50:36.550Z,97789.09
2022-09-02T14:52:46.933Z,97775.16
2022-09-02T14:54:52.018Z,97787.03
2022-09-02T14:56:55.116Z,97779.63
2022-09-02T14:58:58.146Z,97776.34
2022-09-02T15:01:03.198Z,97781.69
2022-09-02T15:03:06.988Z,97785.19
2022-09-02T15:05:13.541Z,97773.06
2022-09-02T15:07:16.670Z,97772.63
2022-09-02T15:09:19.697Z,97771.81
2022-09-02T15:11:22.855Z,97778.56
2022-09-02T15:13:28.549Z,97777.94
2022-09-02T15:15:32.018Z,97784.53
2022-09-02T15:17:36.467Z,97770.13
2022-09-02T15:19:39.535Z,97767.69
2022-09-02T15:21:42.617Z,97769.34
2022-09-02T15:23:51.044Z,97780.84
2022-09-02T15:25:54.689Z,97789.25
2022-09-02T15:27:57.731Z,97776.75
2022-09-02T15:30:00.766Z,97782.09
2022-09-02T15:32:04.967Z,97780.00
2022-09-02T15:34:09.307Z,97782.47
2022-09-02T15:36:13.430Z,97787.44
2022-09-02T15:38:17.094Z,97786.38
2022-09-02T15:40:20.165Z,97781.88
2022-09-02T15:42:23.501Z,97792.56
2022-09-02T15:44:27.535Z,97786.19
2022-09-02T15:46:32.170Z,97782.50
2022-09-02T15:48:37.047Z,97774.50
2022-09-02T15:50:41.471Z,97771.22
2022-09-02T15:52:46.358Z,97759.50
2022-09-02T15:54:49.442Z,97761.53
2022-09-02T15:56:56.017Z,97772.41
2022-09-02T15:59:00.171Z,97765.59
2022-09-02T16:01:05.931Z,97773.84
2022-09-02T16:03:09.317Z,97772.38
2022-09-02T16:05:13.068Z,97778.75
2022-09-02T16:07:17.519Z,97774.44
2022-09-02T16:09:20.753Z,97789.00
2022-09-02T16:11:24.277Z,97795.56
2022-09-02T16:13:28.610Z,97785.47
2022-09-02T16:15:31.595Z,97792.47
2022-09-02T16:17:37.442Z,97791.63
2022-09-02T16:19:40.475Z,97792.84
2022-09-02T16:21:43.456Z,97787.72
2022-09-02T16:23:48.043Z,97785.25
2022-09-02T16:26:07.309Z,97786.66
2022-09-02T16:28:10.331Z,97785.41
2022-09-02T16:30:13.655Z,97789.50
2022-09-02T16:32:24.607Z,97790.91
2022-09-02T16:34:30.797Z,97782.69
2022-09-02T16:36:35.150Z,97782.28
2022-09-02T16:38:38.401Z,97783.47
2022-09-02T16:40:50.914Z,97779.75
2022-09-02T16:42:53.991Z,97783.66
2022-09-02T16:44:57.017Z,97778.53
2022-09-02T16:47:00.038Z,97776.81
2022-09-02T16:49:03.908Z,97770.22
2022-09-02T16:51:07.311Z,97778.63
2022-09-02T16:53:11.086Z,97768.16
2022-09-02T16:55:18.579Z,97767.72
2022-09-02T16:57:23.065Z,97767.31
2022-09-02T16:59:26.071Z,97769.94
2022-09-02T17:01:32.312Z,97767.69
2022-09-02T17:03:35.891Z,97764.16
2022-09-02T17:05:39.043Z,97761.69
2022-09-02T17:07:42.140Z,97762.09
2022-09-02T17:09:45.286Z,97757.34
2022-09-02T17:11:48.304Z,97769.84
2022-09-02T17:13:54.193Z,97770.88
2022-09-02T17:15:57.246Z,97776.38
2022-09-02T17:18:00.250Z,97773.31
2022-09-02T17:20:03.676Z,97779.22
2022-09-02T17:22:06.837Z,97775.28
2022-09-02T17:24:11.195Z,97774.66
2022-09-02T17:26:14.950Z,97763.38
2022-09-02T17:28:18.000Z,97770.09
2022-09-02T17:30:23.761Z,97771.53
2022-09-02T17:32:27.690Z,97769.25
2022-09-02T17:34:33.191Z,97772.91
2022-09-02T17:36:38.868Z,97770.66
2022-09-02T17:38:42.201Z,97760.34
2022-09-02T17:41:02.460Z,97758.63
2022-09-02T17:43:05.466Z,97752.22
2022-09-02T17:45:09.259Z,97749.34
2022-09-02T17:47:16.559Z,97755.44
2022-09-02T17:49:20.421Z,97757.66
2022-09-02T17:51:23.834Z,97749.25
2022-09-02T17:53:29.470Z,97756.56
2022-09-02T17:55:34.557Z,97755.31
2022-09-02T17:57:43.230Z,97761.22
2022-09-02T18:00:08.161Z,97751.16
2022-09-02T18:02:33.291Z,97752.91
2022-09-02T18:04:44.979Z,97745.25
2022-09-02T18:06:50.020Z,97749.81
2022-09-02T18:08:56.375Z,97753.00
2022-09-02T18:11:03.107Z,97761.53
2022-09-02T18:13:08.945Z,97756.16
2022-09-02T18:15:17.063Z,97758.53
2022-09-02T18:17:28.893Z,97765.25
2022-09-02T18:19:41.374Z,97758.66
2022-09-02T18:22:00.904Z,97762.22
2022-09-02T18:24:13.656Z,97766.00
2022-09-02T18:26:24.319Z,97767.97
2022-09-02T18:28:46.553Z,97772.88
2022-09-02T18:30:55.349Z,97771.44
2022-09-02T18:33:19.090Z,97775.00
2022-09-02T18:35:28.094Z,97770.41
2022-09-02T18:37:39.291Z,97771.16
2022-09-02T18:39:56.507Z,97769.03
2022-09-02T18:42:15.672Z,97774.06
2022-09-02T18:44:28.518Z,97774.41
2022-09-02T18:46:35.321Z,97776.63
2022-09-02T18:48:40.332Z,97773.50
2022-09-02T18:50:51.965Z,97779.19
2022-09-02T18:52:58.335Z,97778.91
2022-09-02T18:55:06.089Z,97778.25
2022-09-02T18:57:10.027Z,97783.91
2022-09-02T18:59:14.627Z,97788.78
2022-09-02T19:01:22.071Z,97796.63
2022-09-02T19:03:25.304Z,97789.38
2022-09-02T19:05:32.557Z,97792.59
2022-09-02T19:07:53.100Z,97794.06
2022-09-02T19:09:56.130Z,97791.78
2022-09-02T19:12:02.621Z,97797.25
2022-09-02T19:14:18.041Z,97793.97
2022-09-02T19:16:23.444Z,97800.63
2022-09-02T19:18:26.758Z,97796.53
2022-09-02T19:20:31.358Z,97798.50
2022-09-02T19:22:36.042Z,97802.81
2022-09-02T19:24:43.739Z,97804.84
2022-09-02T19:26:50.569Z,97803.19
2022-09-02T19:28:55.480Z,97807.50
2022-09-02T19:31:00.800Z,97800.53
2022-09-02T19:33:06.954Z,97800.53
2022-09-02T19:37:21.324Z,97801.22
2022-09-02T19:39:26.819Z,97800.25
2022-09-02T19:41:30.069Z,97801.22
2022-09-02T19:43:33.108Z,97796.91
2022-09-02T19:45:37.500Z,97798.75
2022-09-02T19:50:05.991Z,97793.63
2022-09-02T19:52:09.171Z,97792.63
2022-09-02T19:54:15.505Z,97794.25
2022-09-02T19:56:20.284Z,97796.75
2022-09-02T19:58:23.638Z,97793.09
2022-09-02T20:00:27.876Z,97796.75
2022-09-02T20:02:31.033Z,97793.28
2022-09-02T20:04:34.618Z,97787.16
2022-09-02T20:06:37.934Z,97781.00
2022-09-02T20:08:40.929Z,97776.53
2022-09-02T20:10:45.853Z,97781.66
2022-09-02T20:12:48.952Z,97776.34
2022-09-02T20:14:52.198Z,97773.03
2022-09-02T20:16:57.912Z,97778.34
2022-09-02T20:19:01.098Z,97777.72
2022-09-02T20:21:05.691Z,97771.41
2022-09-02T20:23:08.781Z,97771.41
2022-09-02T20:25:12.060Z,97768.09
2022-09-02T20:27:24.983Z,97769.91
2022-09-02T20:29:41.494Z,97763.31
2022-09-02T20:31:57.090Z,97766.13
2022-09-02T20:34:06.057Z,97767.16
2022-09-02T20:36:12.964Z,97765.84
2022-09-02T20:38:34.552Z,97764.22
2022-09-02T20:40:45.901Z,97761.94
2022-09-02T20:43:33.222Z,97761.09
2022-09-02T20:45:39.159Z,97765.75
2022-09-02T20:47:54.927Z,97765.28
2022-09-02T20:50:06.244Z,97768.13
2022-09-02T20:52:15.473Z,97773.59
2022-09-02T20:54:24.171Z,97766.00
2022-09-02T20:56:32.656Z,97766.50
2022-09-02T20:58:42.726Z,97775.63
2022-09-02T21:00:54.320Z,97776.16
2022-09-02T21:03:00.851Z,97769.88
2022-09-02T21:05:08.056Z,97769.00
2022-09-02T21:07:15.153Z,97769.38
2022-09-02T21:09:35.025Z,97765.25
2022-09-02T21:11:47.996Z,97763.59
2022-09-02T21:13:55.969Z,97760.44
2022-09-02T21:16:00.565Z,97761.78
2022-09-02T21:18:08.984Z,97754.53
2022-09-02T21:20:16.247Z,97754.34
2022-09-02T21:22:23.123Z,97754.19
2022-09-02T21:24:34.066Z,97752.72
2022-09-02T21:26:41.795Z,97747.44
2022-09-02T21:28:47.822Z,97743.94
2022-09-02T21:30:57.404Z,97752.72
2022-09-02T21:33:01.937Z,97750.72
2022-09-02T21:35:09.814Z,97750.72
2022-09-02T21:37:13.698Z,97757.50
2022-09-02T21:39:19.732Z,97757.34
2022-09-02T21:41:33.549Z,97761.44
2022-09-02T21:43:46.673Z,97765.91
2022-09-02T21:45:58.274Z,97756.31
2022-09-02T21:48:11.890Z,97766.91
2022-09-02T21:50:21.499Z,97757.50
2022-09-02T21:52:30.731Z,97765.28
2022-09-02T21:54:42.622Z,97769.09
2022-09-02T21:56:55.761Z,97760.50
2022-09-02T21:59:12.453Z,97770.09
2022-09-02T22:01:21.855Z,97770.94
2022-09-02T22:03:37.145Z,97773.09
2022-09-02T22:05:48.159Z,97774.78
2022-09-02T22:07:55.506Z,97767.84
2022-09-02T22:10:06.822Z,97770.19
2022-09-02T22:12:14.704Z,97765.06
2022-09-02T22:14:24.726Z,97770.69
2022-09-02T22:16:35.150Z,97764.91
2022-09-02T22:18:40.775Z,97773.03
2022-09-02T22:20:45.989Z,97774.69
2022-09-02T22:22:54.326Z,97770.53
2022-09-02T22:24:58.453Z,97774.22
2022-09-02T22:27:06.348Z,97777.03
2022-09-02T22:29:17.255Z,97771.25
2022-09-02T22:31:25.998Z,97772.41
2022-09-02T22:33:34.005Z,97769.31
2022-09-02T22:35:41.440Z,97767.34
2022-09-02T22:37:51.353Z,97778.75
2022-09-02T22:39:56.414Z,97769.31
2022-09-02T22:42:05.049Z,97770.50
2022-09-02T22:44:10.901Z,97769.19
2022-09-02T22:46:35.570Z,97768.38
2022-09-02T22:49:00.965Z,97767.22
2022-09-02T22:51:25.252Z,97764.09
2022-09-02T22:53:29.805Z,97766.06
2022-09-02T22:55:47.013Z,97776.66
2022-09-02T22:57:57.392Z,97774.34
2022-09-02T23:00:07.962Z,97777.69
2022-09-02T23:02:18.041Z,97776.03
2022-09-02T23:04:31.713Z,97774.06
2022-09-02T23:06:38.891Z,97768.59
2022-09-02T23:08:43.651Z,97769.25
2022-09-02T23:10:52.103Z,97754.03
2022-09-02T23:13:00.455Z,97758.03
2022-09-02T23:15:20.208Z,97753.09
2022-09-02T23:17:34.417Z,97747.31
2022-09-02T23:19:45.274Z,97748.47
2022-09-02T23:21:55.552Z,97745.81
2022-09-02T23:24:03.991Z,97747.97
2022-09-02T23:26:18.667Z,97738.38
2022-09-02T23:28:32.248Z,97738.88
2022-09-02T23:30:36.543Z,97747.31
2022-09-02T23:32:54.749Z,97738.38
2022-09-02T23:35:07.757Z,97743.19
2022-09-02T23:37:16.844Z,97747.31
2022-09-02T23:39:31.407Z,97744.34
2022-09-02T23:41:36.287Z,97743.84
2022-09-02T23:43:41.742Z,97737.03
2022-09-02T23:45:47.587Z,97736.53
2022-09-02T23:48:09.043Z,97737.03
2022-09-02T23:50:22.482Z,97734.72
2022-09-02T23:52:27.349Z,97738.50
2022-09-02T23:54:39.813Z,97739.69
2022-09-02T23:56:59.051Z,97744.94
2022-09-02T23:59:17.378Z,97745.94
